Time;durP1;ratioP1;P1;durP2;ratioP2;P2;SDS_P1;SDS_P2;PMS_P1;PMS_P2;Temp;Humidity;BMP_temperature;BMP_pressure;BME280_temperature;BME280_humidity;BME280_pressure;Samples;Min_cycle;Max_cycle;Signal;HPM_P1;HPM_P2
2021/12/29 00:01:36;;;;;;;21.63;6.80;;;5.70;99.90;;;;;;5060804;27;20214;-39
2021/12/29 00:04:03;;;;;;;18.07;6.57;;;5.70;99.90;;;;;;5048568;28;20207;-39
2021/12/29 00:06:30;;;;;;;18.27;6.93;;;5.70;99.90;;;;;;5052219;28;20660;-38
2021/12/29 00:08:59;;;;;;;16.83;7.47;;;5.70;99.90;;;;;;5032100;28;20223;-39
2021/12/29 00:11:27;;;;;;;14.03;6.90;;;5.70;99.90;;;;;;5066501;28;20967;-38
2021/12/29 00:13:55;;;;;;;15.70;7.03;;;5.70;99.90;;;;;;5047858;28;20648;-39
2021/12/29 00:16:21;;;;;;;17.07;7.63;;;5.70;99.90;;;;;;5047899;28;22079;-38
2021/12/29 00:18:48;;;;;;;16.63;7.60;;;5.70;99.90;;;;;;5074156;28;20207;-39
2021/12/29 00:21:15;;;;;;;21.07;8.20;;;5.70;99.90;;;;;;5030614;28;20217;-39
2021/12/29 00:23:42;;;;;;;17.20;7.60;;;5.60;99.90;;;;;;5067180;28;20204;-38
2021/12/29 00:26:11;;;;;;;16.43;6.90;;;5.60;99.90;;;;;;5056340;28;21088;-39
2021/12/29 00:28:39;;;;;;;21.90;6.83;;;5.60;99.90;;;;;;5047787;28;20724;-38
2021/12/29 00:31:06;;;;;;;21.87;8.40;;;5.50;99.90;;;;;;5062306;28;20195;-38
2021/12/29 00:33:33;;;;;;;15.77;7.80;;;5.50;99.90;;;;;;5068412;28;21391;-38
2021/12/29 00:36:00;;;;;;;16.13;7.07;;;5.50;99.90;;;;;;5060016;28;20586;-39
2021/12/29 00:38:27;;;;;;;22.77;7.40;;;5.60;99.90;;;;;;5061990;28;20207;-38
2021/12/29 00:40:54;;;;;;;17.77;7.30;;;5.50;99.90;;;;;;5059715;28;20200;-39
2021/12/29 00:43:21;;;;;;;19.63;7.13;;;5.50;99.90;;;;;;5049377;28;20584;-39
2021/12/29 00:45:50;;;;;;;20.17;6.97;;;5.50;99.90;;;;;;5053885;28;20227;-38
2021/12/29 00:48:19;;;;;;;11.90;6.57;;;5.50;99.90;;;;;;5046284;28;20215;-39
2021/12/29 00:50:46;;;;;;;12.27;6.97;;;5.40;99.90;;;;;;5051637;28;20206;-38
2021/12/29 00:53:13;;;;;;;15.40;7.60;;;5.40;99.90;;;;;;5060324;27;20208;-39
2021/12/29 00:55:40;;;;;;;15.00;7.17;;;5.40;99.90;;;;;;5064327;28;20242;-38
2021/12/29 00:58:08;;;;;;;17.10;6.93;;;5.40;99.90;;;;;;5058519;28;20298;-39
2021/12/29 01:00:37;;;;;;;10.47;7.07;;;5.40;99.90;;;;;;5065066;27;20879;-38
2021/12/29 01:03:06;;;;;;;14.23;6.63;;;5.40;99.90;;;;;;5072761;27;20207;-39
2021/12/29 01:05:33;;;;;;;18.10;7.33;;;5.30;99.90;;;;;;5061652;28;21579;-38
2021/12/29 01:08:00;;;;;;;15.67;6.57;;;5.30;99.90;;;;;;5076930;28;20282;-38
2021/12/29 01:10:27;;;;;;;16.13;7.47;;;5.30;99.90;;;;;;5071272;28;20214;-39
2021/12/29 01:12:58;;;;;;;14.13;7.17;;;5.30;99.90;;;;;;5049968;28;20222;-39
2021/12/29 01:15:32;;;;;;;13.40;6.77;;;5.30;99.90;;;;;;5049352;28;20265;-39
2021/12/29 01:18:01;;;;;;;9.97;7.20;;;5.30;99.90;;;;;;5074899;28;21057;-39
2021/12/29 01:20:30;;;;;;;13.87;7.10;;;5.30;99.90;;;;;;5060208;27;21718;-39
2021/12/29 01:22:58;;;;;;;16.87;6.73;;;5.30;99.90;;;;;;5062616;28;20899;-38
2021/12/29 01:25:26;;;;;;;15.47;6.40;;;5.30;99.90;;;;;;5065983;28;20232;-38
2021/12/29 01:27:53;;;;;;;11.03;6.27;;;5.30;99.90;;;;;;5068741;27;20199;-38
2021/12/29 01:30:21;;;;;;;11.57;6.03;;;5.30;99.90;;;;;;5046486;28;20219;-38
2021/12/29 01:32:48;;;;;;;12.97;5.60;;;5.30;99.90;;;;;;5053286;28;20213;-38
2021/12/29 01:35:15;;;;;;;11.50;6.60;;;5.30;99.90;;;;;;5064571;28;20219;-38
2021/12/29 01:37:44;;;;;;;10.10;5.93;;;5.30;99.90;;;;;;5061167;27;20983;-38
2021/12/29 01:40:14;;;;;;;22.67;7.73;;;5.30;99.90;;;;;;5060229;28;20221;-39
2021/12/29 01:42:41;;;;;;;18.37;7.70;;;5.30;99.90;;;;;;5043636;28;20207;-39
2021/12/29 01:45:10;;;;;;;12.50;7.30;;;5.40;99.90;;;;;;5080336;28;20604;-38
2021/12/29 01:47:38;;;;;;;19.93;8.23;;;5.40;99.90;;;;;;5058341;28;21031;-38
2021/12/29 01:50:08;;;;;;;12.93;8.30;;;5.40;99.90;;;;;;5069758;28;20208;-39
2021/12/29 01:52:38;;;;;;;13.70;7.57;;;5.40;99.90;;;;;;5049484;27;25905;-38
2021/12/29 01:55:10;;;;;;;17.83;8.43;;;5.40;99.90;;;;;;5074700;28;20222;-38
2021/12/29 01:57:38;;;;;;;19.97;8.70;;;5.40;99.90;;;;;;5077942;28;20232;-39
2021/12/29 02:00:09;;;;;;;19.00;8.97;;;5.30;99.90;;;;;;5066980;28;20915;-39
2021/12/29 02:02:36;;;;;;;17.83;8.70;;;5.40;99.90;;;;;;5062999;28;20911;-38
2021/12/29 02:05:03;;;;;;;23.10;8.53;;;5.40;99.90;;;;;;5058656;28;20240;-39
2021/12/29 02:07:30;;;;;;;19.83;9.47;;;5.40;99.90;;;;;;5060259;28;20210;-39
2021/12/29 02:09:57;;;;;;;15.80;8.27;;;5.40;99.90;;;;;;5081957;28;20814;-38
2021/12/29 02:12:25;;;;;;;18.17;9.43;;;5.40;99.90;;;;;;5047519;28;21055;-39
2021/12/29 02:14:52;;;;;;;16.93;9.17;;;5.40;99.90;;;;;;5066898;28;20693;-39
2021/12/29 02:17:20;;;;;;;20.97;9.87;;;5.50;99.90;;;;;;5053634;28;21165;-39
2021/12/29 02:19:47;;;;;;;18.73;9.67;;;5.40;99.90;;;;;;5073392;28;20883;-38
2021/12/29 02:22:30;;;;;;;18.87;9.43;;;5.40;99.90;;;;;;5076384;27;20261;-38
2021/12/29 02:25:08;;;;;;;22.20;9.33;;;5.40;99.90;;;;;;5044032;28;20226;-38
2021/12/29 02:27:36;;;;;;;24.37;9.87;;;5.40;99.90;;;;;;5073628;28;20196;-38
2021/12/29 02:30:05;;;;;;;24.27;10.17;;;5.50;99.90;;;;;;5062881;28;20203;-39
2021/12/29 02:32:32;;;;;;;24.93;9.93;;;5.50;99.90;;;;;;5052923;28;21742;-38
2021/12/29 02:34:59;;;;;;;20.63;10.27;;;5.40;99.90;;;;;;5069913;27;20239;-38
2021/12/29 02:37:27;;;;;;;21.43;9.80;;;5.40;99.90;;;;;;5060777;28;20216;-38
2021/12/29 02:39:55;;;;;;;19.07;9.37;;;5.30;99.90;;;;;;5060592;27;20210;-39
2021/12/29 02:42:26;;;;;;;25.83;9.67;;;5.30;99.90;;;;;;5052660;27;20208;-38
2021/12/29 02:44:53;;;;;;;33.60;10.67;;;5.30;99.90;;;;;;5051130;27;20211;-39
2021/12/29 02:47:21;;;;;;;36.03;11.37;;;5.30;99.90;;;;;;5073901;28;20212;-39
2021/12/29 02:49:49;;;;;;;22.10;10.70;;;5.30;99.90;;;;;;5051649;28;20200;-38
2021/12/29 02:52:16;;;;;;;25.77;10.83;;;5.30;99.90;;;;;;5074965;27;20686;-38
2021/12/29 02:54:44;;;;;;;49.33;11.97;;;5.40;99.90;;;;;;5079968;27;21312;-38
2021/12/29 02:57:11;;;;;;;25.57;11.47;;;5.40;99.90;;;;;;5048020;28;20981;-38
2021/12/29 02:59:38;;;;;;;37.70;12.10;;;5.40;99.90;;;;;;5070239;28;20206;-39
2021/12/29 03:02:05;;;;;;;23.37;10.93;;;5.40;99.90;;;;;;5054451;28;21988;-39
2021/12/29 03:04:32;;;;;;;35.40;10.93;;;5.40;99.90;;;;;;5073292;28;20944;-38
2021/12/29 03:06:59;;;;;;;22.57;10.33;;;5.40;99.90;;;;;;5058203;28;20239;-38
2021/12/29 03:09:26;;;;;;;21.73;10.87;;;5.40;99.90;;;;;;5080853;27;20216;-39
2021/12/29 03:11:54;;;;;;;21.60;9.63;;;5.40;99.90;;;;;;5063043;28;20215;-39
2021/12/29 03:14:22;;;;;;;24.83;10.33;;;5.40;99.90;;;;;;5054163;28;20210;-38
2021/12/29 03:16:49;;;;;;;26.67;10.10;;;5.40;99.90;;;;;;5048554;28;20231;-38
2021/12/29 03:19:16;;;;;;;20.33;9.60;;;5.40;99.90;;;;;;5067275;28;20206;-39
2021/12/29 03:21:45;;;;;;;17.60;8.90;;;5.40;99.90;;;;;;5053102;28;20220;-38
2021/12/29 03:24:14;;;;;;;19.97;9.37;;;5.40;99.90;;;;;;5064340;28;20206;-38
2021/12/29 03:26:41;;;;;;;21.40;9.67;;;5.40;99.90;;;;;;5059136;28;20319;-38
2021/12/29 03:29:09;;;;;;;19.27;8.70;;;5.40;99.90;;;;;;5072312;28;20211;-38
2021/12/29 03:31:38;;;;;;;19.03;9.30;;;5.40;99.90;;;;;;5050618;28;20239;-39
2021/12/29 03:34:06;;;;;;;18.23;8.73;;;5.40;99.90;;;;;;5057202;28;20208;-39
2021/12/29 03:36:33;;;;;;;19.57;9.33;;;5.40;99.90;;;;;;5056417;27;20228;-39
2021/12/29 03:39:01;;;;;;;15.77;9.23;;;5.40;99.90;;;;;;5077806;27;20303;-38
2021/12/29 03:41:28;;;;;;;15.43;8.00;;;5.40;99.90;;;;;;5054708;27;20712;-38
2021/12/29 03:43:55;;;;;;;21.40;9.27;;;5.40;99.90;;;;;;5063131;28;20212;-38
2021/12/29 03:46:25;;;;;;;22.67;8.23;;;5.40;99.90;;;;;;5074679;28;23713;-38
2021/12/29 03:48:52;;;;;;;17.33;8.67;;;5.50;99.90;;;;;;5047820;28;20203;-39
2021/12/29 03:51:19;;;;;;;16.87;8.80;;;5.50;99.90;;;;;;5074645;28;20207;-39
2021/12/29 03:53:46;;;;;;;17.70;8.20;;;5.50;99.90;;;;;;5062361;28;20208;-39
2021/12/29 03:56:14;;;;;;;15.17;8.67;;;5.50;99.90;;;;;;5055254;28;20239;-38
2021/12/29 03:58:44;;;;;;;14.20;7.83;;;5.50;99.90;;;;;;5055909;28;20990;-39
2021/12/29 04:01:15;;;;;;;12.70;7.63;;;5.50;99.90;;;;;;5074289;28;20207;-38
2021/12/29 04:03:45;;;;;;;18.00;8.93;;;5.50;99.90;;;;;;5041654;28;20246;-38
2021/12/29 04:06:13;;;;;;;11.00;7.30;;;5.50;99.90;;;;;;5076418;28;20219;-39
2021/12/29 04:08:40;;;;;;;12.70;8.33;;;5.50;99.90;;;;;;5051339;28;20208;-39
2021/12/29 04:11:07;;;;;;;16.17;8.47;;;5.50;99.90;;;;;;5058066;28;20225;-38
2021/12/29 04:13:35;;;;;;;17.20;7.97;;;5.50;99.90;;;;;;5078235;28;20678;-38
2021/12/29 04:16:05;;;;;;;12.93;8.13;;;5.50;99.90;;;;;;5062906;28;20230;-38
2021/12/29 04:18:32;;;;;;;14.30;8.03;;;5.50;99.90;;;;;;5067303;28;20947;-39
2021/12/29 04:21:04;;;;;;;10.83;7.20;;;5.50;99.90;;;;;;5066227;28;20207;-39
2021/12/29 04:23:33;;;;;;;15.83;8.27;;;5.50;99.90;;;;;;5071981;28;20202;-38
2021/12/29 04:26:02;;;;;;;13.47;7.70;;;5.50;99.90;;;;;;5050572;28;20227;-39
2021/12/29 04:28:30;;;;;;;15.97;8.67;;;5.50;99.90;;;;;;5072607;28;20208;-39
2021/12/29 04:30:59;;;;;;;13.57;8.37;;;5.40;99.90;;;;;;5068351;28;20199;-39
2021/12/29 04:33:28;;;;;;;13.87;8.33;;;5.40;99.90;;;;;;5040809;28;20196;-38
2021/12/29 04:35:56;;;;;;;14.00;7.83;;;5.40;99.90;;;;;;5070314;28;20916;-39
2021/12/29 04:38:25;;;;;;;14.80;8.47;;;5.40;99.90;;;;;;5067979;28;20222;-38
2021/12/29 04:40:54;;;;;;;15.47;9.07;;;5.40;99.90;;;;;;5070318;28;20207;-38
2021/12/29 04:43:22;;;;;;;19.67;8.50;;;5.50;99.90;;;;;;5061458;28;20225;-38
2021/12/29 04:45:49;;;;;;;16.03;9.57;;;5.50;99.90;;;;;;5069612;28;20231;-39
2021/12/29 04:48:17;;;;;;;18.87;9.50;;;5.50;99.90;;;;;;5057234;27;20211;-38
2021/12/29 04:50:50;;;;;;;16.57;9.87;;;5.50;99.90;;;;;;5084820;28;20199;-47
2021/12/29 04:53:18;;;;;;;17.80;9.80;;;5.50;99.90;;;;;;5072814;28;20203;-47
2021/12/29 04:55:49;;;;;;;17.97;9.87;;;5.50;99.90;;;;;;5051191;28;20232;-42
2021/12/29 04:58:18;;;;;;;17.57;9.23;;;5.40;99.90;;;;;;5060995;28;20708;-42
2021/12/29 05:00:46;;;;;;;18.57;10.50;;;5.50;99.90;;;;;;5067640;28;20232;-42
2021/12/29 05:03:13;;;;;;;14.57;9.27;;;5.40;99.90;;;;;;5045840;28;20211;-42
2021/12/29 05:05:53;;;;;;;15.93;9.47;;;5.40;99.90;;;;;;5073545;28;20227;-42
2021/12/29 05:08:25;;;;;;;18.87;9.97;;;5.40;99.90;;;;;;5069401;28;20218;-42
2021/12/29 05:10:54;;;;;;;16.57;8.70;;;5.40;99.90;;;;;;5038183;28;20204;-42
2021/12/29 05:13:21;;;;;;;19.53;9.07;;;5.40;99.90;;;;;;5044627;28;20212;-42
2021/12/29 05:15:48;;;;;;;19.57;9.73;;;5.40;99.90;;;;;;5066224;28;20230;-42
2021/12/29 05:18:15;;;;;;;16.03;9.03;;;5.40;99.90;;;;;;5048260;28;21025;-42
2021/12/29 05:20:42;;;;;;;13.87;8.63;;;5.40;99.90;;;;;;5080008;28;20197;-42
2021/12/29 05:23:10;;;;;;;57.57;10.30;;;5.30;99.90;;;;;;5069151;28;20199;-42
2021/12/29 05:25:38;;;;;;;55.83;9.33;;;5.30;99.90;;;;;;5058099;28;20252;-42
2021/12/29 05:28:08;;;;;;;47.10;9.30;;;5.30;99.90;;;;;;5065651;28;20197;-42
2021/12/29 05:30:36;;;;;;;17.27;8.43;;;5.20;99.90;;;;;;5057732;28;20673;-42
2021/12/29 05:33:04;;;;;;;13.70;8.17;;;5.20;99.90;;;;;;5041866;28;20235;-42
2021/12/29 05:35:31;;;;;;;17.27;8.17;;;5.20;99.90;;;;;;5063449;28;20875;-42
2021/12/29 05:37:58;;;;;;;14.03;8.57;;;5.20;99.90;;;;;;5063152;27;20229;-42
2021/12/29 05:40:27;;;;;;;13.80;7.77;;;5.20;99.90;;;;;;5060948;28;20208;-42
2021/12/29 05:42:54;;;;;;;13.73;7.70;;;5.20;99.90;;;;;;5061274;28;20277;-42
2021/12/29 05:45:23;;;;;;;16.37;9.43;;;5.20;99.90;;;;;;5060414;28;20239;-39
2021/12/29 05:47:50;;;;;;;19.20;9.83;;;5.20;99.90;;;;;;5070947;28;20231;-39
2021/12/29 05:50:20;;;;;;;19.13;8.73;;;5.20;99.90;;;;;;5068979;28;20214;-39
2021/12/29 05:52:47;;;;;;;23.33;8.67;;;5.30;99.90;;;;;;5052039;27;20215;-38
2021/12/29 05:55:14;;;;;;;34.20;9.10;;;5.30;99.90;;;;;;5072792;28;20227;-38
2021/12/29 05:57:41;;;;;;;22.67;9.00;;;5.30;99.90;;;;;;5072201;28;20200;-39
2021/12/29 06:00:11;;;;;;;16.57;9.60;;;5.30;99.90;;;;;;5044262;28;20208;-39
2021/12/29 06:02:39;;;;;;;21.70;9.17;;;5.30;99.90;;;;;;5028513;28;20241;-39
2021/12/29 06:05:07;;;;;;;27.90;9.63;;;5.30;99.90;;;;;;5066315;28;20587;-39
2021/12/29 06:07:33;;;;;;;20.43;9.07;;;5.30;99.90;;;;;;5056346;28;20219;-39
2021/12/29 06:10:01;;;;;;;14.00;8.33;;;5.30;99.90;;;;;;5067891;27;20919;-39
2021/12/29 06:12:27;;;;;;;41.00;9.97;;;5.20;99.90;;;;;;5030078;28;20210;-39
2021/12/29 06:14:55;;;;;;;38.10;9.07;;;5.20;99.90;;;;;;5064257;28;20864;-39
2021/12/29 06:17:22;;;;;;;55.00;9.23;;;5.20;99.90;;;;;;5065818;28;20860;-39
2021/12/29 06:19:50;;;;;;;40.57;9.30;;;5.30;99.90;;;;;;5061504;27;20725;-39
2021/12/29 06:22:17;;;;;;;25.07;8.23;;;5.20;99.90;;;;;;5067071;28;20207;-39
2021/12/29 06:24:51;;;;;;;51.80;9.30;;;5.20;99.90;;;;;;5057759;28;21333;-39
2021/12/29 06:27:19;;;;;;;27.00;8.73;;;5.20;99.90;;;;;;5058817;28;20217;-39
2021/12/29 06:29:46;;;;;;;29.83;8.30;;;5.20;99.90;;;;;;5076850;28;20192;-38
2021/12/29 06:32:13;;;;;;;26.93;7.90;;;5.20;99.90;;;;;;5051004;27;20214;-39
2021/12/29 06:34:39;;;;;;;31.60;8.00;;;5.30;99.90;;;;;;5049152;28;20207;-42
2021/12/29 06:37:09;;;;;;;16.23;8.10;;;5.20;99.90;;;;;;5051507;28;22139;-41
2021/12/29 06:39:37;;;;;;;34.30;8.13;;;5.20;99.90;;;;;;5059924;28;20212;-41
2021/12/29 06:42:04;;;;;;;11.87;7.60;;;5.30;99.90;;;;;;5062105;28;20244;-42
2021/12/29 06:44:31;;;;;;;18.23;7.93;;;5.30;99.90;;;;;;5059051;28;20212;-41
2021/12/29 06:46:58;;;;;;;14.77;8.00;;;5.30;99.90;;;;;;5060077;28;20231;-41
2021/12/29 06:49:26;;;;;;;11.93;7.50;;;5.20;99.90;;;;;;5062347;28;20724;-41
2021/12/29 06:51:52;;;;;;;19.50;7.67;;;5.30;99.90;;;;;;5041404;28;20212;-42
2021/12/29 06:54:21;;;;;;;11.30;7.53;;;5.20;99.90;;;;;;5062436;28;20210;-42
2021/12/29 06:56:48;;;;;;;23.10;7.60;;;5.20;99.90;;;;;;5064919;28;20235;-41
2021/12/29 06:59:15;;;;;;;11.63;7.57;;;5.30;99.90;;;;;;5069786;28;20253;-41
2021/12/29 07:01:41;;;;;;;9.70;6.97;;;5.30;99.90;;;;;;5070939;28;20207;-41
2021/12/29 07:04:08;;;;;;;15.13;7.83;;;5.30;99.90;;;;;;5048487;27;20222;-42
2021/12/29 07:06:35;;;;;;;11.60;7.40;;;5.30;99.90;;;;;;5060618;28;20233;-41
2021/12/29 07:09:02;;;;;;;11.47;7.47;;;5.20;99.90;;;;;;5058911;28;20206;-42
2021/12/29 07:11:31;;;;;;;14.67;7.47;;;5.30;99.90;;;;;;5057299;28;20212;-42
2021/12/29 07:14:00;;;;;;;15.03;8.00;;;5.30;99.90;;;;;;5070356;28;20229;-41
2021/12/29 07:16:27;;;;;;;12.67;7.63;;;5.30;99.90;;;;;;5047199;28;20305;-41
2021/12/29 07:18:54;;;;;;;12.50;7.60;;;5.30;99.90;;;;;;5063954;27;20224;-42
2021/12/29 07:21:21;;;;;;;10.17;7.20;;;5.20;99.90;;;;;;5054745;28;20306;-42
2021/12/29 07:23:47;;;;;;;14.37;7.77;;;5.30;99.90;;;;;;5080161;28;20216;-41
2021/12/29 07:26:14;;;;;;;12.00;7.50;;;5.20;99.90;;;;;;5064879;27;20255;-41
2021/12/29 07:28:43;;;;;;;12.47;7.50;;;5.20;99.90;;;;;;5047583;28;20206;-42
2021/12/29 07:31:09;;;;;;;11.17;7.47;;;5.20;99.90;;;;;;5067191;27;20212;-41
2021/12/29 07:33:36;;;;;;;11.37;7.50;;;5.20;99.90;;;;;;5048254;28;20223;-41
2021/12/29 07:36:04;;;;;;;9.87;6.73;;;5.20;99.90;;;;;;5048748;28;20221;-41
2021/12/29 07:38:30;;;;;;;11.97;6.20;;;5.20;99.90;;;;;;5065733;28;20228;-42
2021/12/29 07:40:57;;;;;;;8.93;6.23;;;5.20;99.90;;;;;;5056367;28;20200;-41
2021/12/29 07:43:24;;;;;;;9.93;6.23;;;5.10;99.90;;;;;;5061562;28;20222;-41
2021/12/29 07:45:54;;;;;;;8.93;6.13;;;5.20;99.90;;;;;;5047946;28;20234;-41
2021/12/29 07:48:26;;;;;;;10.60;6.30;;;5.10;99.90;;;;;;5079777;28;20200;-41
2021/12/29 07:50:53;;;;;;;9.80;6.00;;;5.10;99.90;;;;;;5027000;28;20212;-42
2021/12/29 07:53:20;;;;;;;8.20;5.80;;;5.10;99.90;;;;;;5063129;28;20219;-41
2021/12/29 07:55:47;;;;;;;8.20;6.00;;;5.20;99.90;;;;;;5062357;28;20215;-41
2021/12/29 07:58:14;;;;;;;9.27;5.93;;;5.20;99.90;;;;;;5061363;28;20208;-42
2021/12/29 08:00:41;;;;;;;11.87;6.33;;;5.20;99.90;;;;;;5064735;28;20219;-42
2021/12/29 08:03:11;;;;;;;8.77;5.97;;;5.20;99.90;;;;;;5060720;28;20207;-41
2021/12/29 08:05:38;;;;;;;13.20;5.93;;;5.10;99.90;;;;;;5056264;28;20231;-41
2021/12/29 08:08:06;;;;;;;14.77;6.10;;;5.10;99.90;;;;;;5051905;28;20214;-41
2021/12/29 08:10:34;;;;;;;15.33;6.70;;;5.20;99.90;;;;;;5068219;28;20285;-42
2021/12/29 08:13:01;;;;;;;40.77;7.47;;;5.20;99.90;;;;;;5048119;28;20204;-41
2021/12/29 08:15:29;;;;;;;16.70;6.70;;;5.20;99.90;;;;;;5065696;28;20241;-42
2021/12/29 08:17:56;;;;;;;49.90;7.13;;;5.20;99.90;;;;;;5055366;28;20943;-41
2021/12/29 08:20:25;;;;;;;28.77;6.73;;;5.20;99.90;;;;;;5060805;28;20231;-41
2021/12/29 08:22:52;;;;;;;51.00;6.33;;;5.20;99.90;;;;;;5065892;28;20685;-42
2021/12/29 08:25:20;;;;;;;31.67;6.23;;;5.20;99.90;;;;;;5064240;28;20227;-42
2021/12/29 08:27:47;;;;;;;25.40;6.47;;;5.20;99.90;;;;;;5053387;28;20210;-41
2021/12/29 08:30:16;;;;;;;29.00;6.80;;;5.20;99.90;;;;;;5031613;28;20211;-41
2021/12/29 08:32:43;;;;;;;81.07;7.70;;;5.20;99.90;;;;;;5053861;28;20211;-42
2021/12/29 08:35:10;;;;;;;88.53;7.63;;;5.20;99.90;;;;;;5052920;28;20228;-42
2021/12/29 08:37:39;;;;;;;38.20;7.13;;;5.20;99.90;;;;;;5051953;28;20681;-42
2021/12/29 08:40:08;;;;;;;46.57;6.97;;;5.20;99.90;;;;;;5040837;28;20216;-42
2021/12/29 08:42:36;;;;;;;48.43;7.00;;;5.30;99.90;;;;;;5053347;28;21183;-47
2021/12/29 08:45:03;;;;;;;46.07;6.80;;;5.20;99.90;;;;;;5031357;28;20231;-48
2021/12/29 08:47:30;;;;;;;18.77;6.83;;;5.20;99.90;;;;;;5067278;28;20666;-47
2021/12/29 08:49:57;;;;;;;33.00;7.33;;;5.30;99.90;;;;;;5049604;28;20213;-48
2021/12/29 08:52:24;;;;;;;38.23;7.13;;;5.30;99.90;;;;;;5043293;28;20214;-47
2021/12/29 08:54:52;;;;;;;46.20;7.20;;;5.30;99.90;;;;;;5047593;28;20207;-48
2021/12/29 08:57:19;;;;;;;16.63;6.10;;;5.30;99.90;;;;;;5059704;28;20220;-47
2021/12/29 08:59:46;;;;;;;22.63;6.37;;;5.30;99.90;;;;;;5066970;28;20225;-48
2021/12/29 09:02:14;;;;;;;23.03;7.63;;;5.30;99.90;;;;;;5057716;28;20215;-47
2021/12/29 09:04:41;;;;;;;26.63;6.60;;;5.30;99.90;;;;;;5056944;28;20199;-47
2021/12/29 09:07:08;;;;;;;42.77;7.90;;;5.30;99.90;;;;;;5078705;28;20233;-47
2021/12/29 09:09:35;;;;;;;64.83;8.50;;;5.40;99.90;;;;;;5040131;28;20706;-47
2021/12/29 09:12:03;;;;;;;24.30;7.20;;;5.40;99.90;;;;;;5062847;28;21871;-47
2021/12/29 09:14:30;;;;;;;51.83;6.97;;;5.40;99.90;;;;;;5053557;28;20205;-47
2021/12/29 09:16:57;;;;;;;83.17;7.83;;;5.40;99.90;;;;;;5074753;28;20230;-47
2021/12/29 09:19:24;;;;;;;35.43;7.83;;;5.50;99.90;;;;;;5060737;28;22797;-42
2021/12/29 09:21:53;;;;;;;21.97;7.00;;;5.50;99.90;;;;;;5065914;28;20288;-42
2021/12/29 09:24:20;;;;;;;26.47;6.93;;;5.50;99.90;;;;;;5062344;28;20211;-42
2021/12/29 09:26:48;;;;;;;18.83;8.00;;;5.50;99.90;;;;;;5055899;27;21017;-42
2021/12/29 09:29:17;;;;;;;42.93;7.73;;;5.50;99.90;;;;;;5079056;28;20192;-42
2021/12/29 09:31:44;;;;;;;24.40;7.00;;;5.50;99.90;;;;;;5055784;28;20215;-42
2021/12/29 09:34:11;;;;;;;28.53;7.43;;;5.50;99.90;;;;;;5054716;28;20260;-39
2021/12/29 09:36:38;;;;;;;15.90;7.17;;;5.50;99.90;;;;;;5044913;28;20223;-39
2021/12/29 09:39:05;;;;;;;27.20;7.07;;;5.60;99.90;;;;;;5038630;27;20236;-39
2021/12/29 09:41:33;;;;;;;16.90;6.47;;;5.50;99.90;;;;;;5048652;28;20196;-39
2021/12/29 09:44:00;;;;;;;30.77;6.37;;;5.50;99.90;;;;;;5059132;28;20202;-39
2021/12/29 09:46:28;;;;;;;20.73;6.23;;;5.60;99.90;;;;;;5083610;28;20250;-38
2021/12/29 09:48:55;;;;;;;34.93;7.07;;;5.60;99.90;;;;;;5050171;28;20207;-39
2021/12/29 09:51:22;;;;;;;19.80;6.47;;;5.50;99.90;;;;;;5073992;28;20663;-39
2021/12/29 09:53:50;;;;;;;18.60;7.20;;;5.50;99.90;;;;;;5037262;28;20203;-39
2021/12/29 09:56:17;;;;;;;13.67;6.50;;;5.50;99.90;;;;;;5053367;28;20232;-39
2021/12/29 09:58:44;;;;;;;16.50;7.27;;;5.50;99.90;;;;;;5061112;28;20218;-39
2021/12/29 10:01:11;;;;;;;17.03;7.07;;;5.50;99.90;;;;;;5057062;28;20214;-42
2021/12/29 10:03:42;;;;;;;22.40;7.37;;;5.50;99.90;;;;;;5080867;28;20203;-42
2021/12/29 10:06:11;;;;;;;65.93;8.80;;;5.50;99.90;;;;;;5070427;28;20227;-42
2021/12/29 10:08:40;;;;;;;19.53;7.80;;;5.60;99.90;;;;;;5057124;28;20220;-42
2021/12/29 10:11:10;;;;;;;25.00;7.53;;;5.60;99.90;;;;;;5035060;28;20215;-42
2021/12/29 10:13:41;;;;;;;16.57;7.50;;;5.60;99.90;;;;;;5066496;28;20288;-42
2021/12/29 10:16:10;;;;;;;28.37;8.27;;;5.70;99.90;;;;;;5066166;28;20341;-42
2021/12/29 10:18:41;;;;;;;49.30;7.43;;;5.70;99.90;;;;;;5060389;28;20624;-42
2021/12/29 10:21:10;;;;;;;16.43;6.90;;;5.70;99.90;;;;;;5062722;28;20228;-42
2021/12/29 10:23:40;;;;;;;23.60;7.50;;;5.70;99.90;;;;;;5072454;28;20752;-40
2021/12/29 10:26:10;;;;;;;29.33;8.37;;;5.70;99.90;;;;;;5043689;28;21064;-39
2021/12/29 10:28:40;;;;;;;18.30;7.90;;;5.80;99.90;;;;;;5055089;28;20210;-40
2021/12/29 10:31:11;;;;;;;20.27;7.90;;;5.80;99.90;;;;;;5059917;28;21368;-43
2021/12/29 10:33:43;;;;;;;19.60;7.70;;;5.80;99.90;;;;;;5063805;28;20204;-43
2021/12/29 10:36:20;;;;;;;21.33;8.17;;;5.80;99.90;;;;;;5066682;28;21070;-43
2021/12/29 10:38:49;;;;;;;16.73;7.60;;;5.80;99.90;;;;;;5053211;28;20207;-40
2021/12/29 10:41:16;;;;;;;17.90;8.57;;;5.80;99.90;;;;;;5060993;28;20850;-39
2021/12/29 10:43:52;;;;;;;17.33;7.53;;;5.80;99.90;;;;;;5067536;28;20217;-39
2021/12/29 10:46:20;;;;;;;39.50;8.60;;;5.80;99.90;;;;;;5061586;28;20235;-39
2021/12/29 10:48:50;;;;;;;31.17;8.40;;;5.80;99.90;;;;;;5060863;27;20244;-39
2021/12/29 10:51:18;;;;;;;38.77;9.70;;;5.80;99.90;;;;;;5076375;28;20199;-39
2021/12/29 10:53:45;;;;;;;23.07;9.60;;;5.90;99.90;;;;;;5061564;28;20218;-39
2021/12/29 10:56:24;;;;;;;23.03;9.67;;;5.90;99.90;;;;;;5060503;28;20237;-39
2021/12/29 10:58:53;;;;;;;26.07;9.67;;;5.90;99.90;;;;;;5056732;28;20208;-40
2021/12/29 11:01:22;;;;;;;30.43;9.37;;;5.90;99.90;;;;;;5043244;28;20223;-40
2021/12/29 11:03:53;;;;;;;33.93;10.00;;;5.90;99.90;;;;;;5061439;27;20203;-39
2021/12/29 11:06:23;;;;;;;27.60;9.17;;;5.90;99.90;;;;;;5058316;27;20231;-39
2021/12/29 11:08:52;;;;;;;21.83;9.53;;;5.90;99.90;;;;;;5053397;28;20337;-40
2021/12/29 11:11:21;;;;;;;43.93;9.40;;;6.00;99.90;;;;;;5059710;28;20206;-38
2021/12/29 11:13:48;;;;;;;33.13;10.40;;;6.00;99.90;;;;;;5055528;28;20216;-42
2021/12/29 11:16:18;;;;;;;37.00;9.47;;;6.00;99.90;;;;;;5070629;27;23691;-42
2021/12/29 11:18:48;;;;;;;31.73;10.17;;;5.90;99.90;;;;;;5053288;27;20215;-42
2021/12/29 11:21:25;;;;;;;39.67;11.17;;;5.90;99.90;;;;;;5066588;28;20224;-42
2021/12/29 11:23:52;;;;;;;35.17;9.77;;;5.90;99.90;;;;;;5050151;28;20677;-42
2021/12/29 11:26:29;;;;;;;38.27;10.70;;;5.90;99.90;;;;;;5063304;27;20235;-42
2021/12/29 11:29:05;;;;;;;54.27;11.43;;;5.90;99.90;;;;;;5042374;27;20766;-42
2021/12/29 11:31:37;;;;;;;30.47;9.97;;;6.00;99.90;;;;;;5061182;28;20192;-42
2021/12/29 11:34:20;;;;;;;36.10;10.77;;;6.00;99.90;;;;;;5051447;28;20208;-42
2021/12/29 11:37:01;;;;;;;37.73;10.43;;;6.00;99.90;;;;;;5069268;28;20246;-42
2021/12/29 11:39:29;;;;;;;20.00;9.07;;;6.00;99.90;;;;;;5046882;28;20219;-42
2021/12/29 11:41:56;;;;;;;34.10;10.00;;;6.00;99.90;;;;;;5072102;28;20199;-42
2021/12/29 11:44:24;;;;;;;27.40;10.93;;;6.00;99.90;;;;;;5033090;28;20208;-42
2021/12/29 11:46:50;;;;;;;29.13;10.37;;;5.90;99.90;;;;;;5064981;28;20235;-42
2021/12/29 11:49:18;;;;;;;24.07;9.83;;;6.00;99.90;;;;;;5040856;28;20211;-42
2021/12/29 11:51:55;;;;;;;23.83;10.57;;;6.00;99.90;;;;;;5065542;28;21319;-42
2021/12/29 11:54:31;;;;;;;25.27;10.50;;;6.00;99.90;;;;;;5064755;28;20223;-42
2021/12/29 11:57:09;;;;;;;22.73;10.10;;;6.00;99.90;;;;;;5064592;28;20711;-42
2021/12/29 11:59:36;;;;;;;26.63;11.60;;;6.00;99.90;;;;;;5056242;28;20208;-42
2021/12/29 12:02:03;;;;;;;20.43;9.63;;;6.00;99.90;;;;;;5065713;27;20768;-41
2021/12/29 12:04:30;;;;;;;22.83;10.23;;;6.00;99.90;;;;;;5061233;28;20209;-42
2021/12/29 12:07:04;;;;;;;25.13;10.37;;;6.00;99.90;;;;;;5083305;28;20232;-42
2021/12/29 12:09:46;;;;;;;21.97;10.07;;;6.00;99.90;;;;;;5059588;28;21354;-41
2021/12/29 12:12:13;;;;;;;22.53;10.67;;;6.00;99.90;;;;;;5069386;28;20209;-42
2021/12/29 12:14:46;;;;;;;23.47;10.73;;;6.00;99.90;;;;;;5059789;28;20258;-42
2021/12/29 12:17:15;;;;;;;22.57;9.73;;;6.00;99.90;;;;;;5063353;28;20241;-42
2021/12/29 12:19:42;;;;;;;21.77;10.60;;;6.10;99.90;;;;;;5049077;28;20212;-42
2021/12/29 12:22:13;;;;;;;20.23;10.03;;;6.10;99.90;;;;;;5080484;28;20207;-41
2021/12/29 12:24:41;;;;;;;26.37;11.37;;;6.10;99.90;;;;;;5060284;28;20266;-42
2021/12/29 12:27:15;;;;;;;24.43;11.40;;;6.10;99.90;;;;;;5054462;27;20219;-46
2021/12/29 12:29:44;;;;;;;27.90;12.07;;;6.20;99.90;;;;;;5031740;28;21439;-38
2021/12/29 12:32:15;;;;;;;28.23;11.20;;;6.20;99.90;;;;;;5063372;28;20203;-38
2021/12/29 12:34:52;;;;;;;23.17;11.63;;;6.20;99.90;;;;;;5044743;28;20218;-38
2021/12/29 12:37:23;;;;;;;21.80;10.67;;;6.20;99.90;;;;;;5070829;28;20199;-38
2021/12/29 12:39:55;;;;;;;29.33;11.87;;;6.20;99.90;;;;;;5052658;28;20207;-38
2021/12/29 12:42:22;;;;;;;23.73;11.77;;;6.20;99.90;;;;;;5057895;28;20214;-41
2021/12/29 12:44:49;;;;;;;22.50;11.53;;;6.20;99.90;;;;;;5056332;28;20203;-42
2021/12/29 12:47:17;;;;;;;21.23;10.93;;;6.20;99.90;;;;;;5037380;27;20219;-41
2021/12/29 12:49:50;;;;;;;27.27;11.07;;;6.20;99.90;;;;;;5059263;28;20207;-41
2021/12/29 12:52:17;;;;;;;28.57;11.87;;;6.20;99.90;;;;;;5049940;28;20215;-41